Time;durP1;ratioP1;P1;durP2;ratioP2;P2;SDS_P1;SDS_P2;PMS_P1;PMS_P2;Temp;Humidity;BMP_temperature;BMP_pressure;BME280_temperature;BME280_humidity;BME280_pressure;Samples;Min_cycle;Max_cycle;Signal;HPM_P1;HPM_P2
2022/01/10 00:02:28;;;;;;;5.03;3.47;;;;;;;;;;6287580;28;20192;-76
2022/01/10 00:05:33;;;;;;;4.90;3.13;;;;;;;;;;6286557;28;20248;-76
2022/01/10 00:08:40;;;;;;;5.40;3.63;;;;;;;;;;6287483;28;20240;-76
2022/01/10 00:11:44;;;;;;;3.13;2.93;;;;;;;;;;6288015;28;20230;-76
2022/01/10 00:14:50;;;;;;;3.40;3.20;;;;;;;;;;6286876;28;20235;-76
2022/01/10 00:17:54;;;;;;;3.60;3.40;;;;;;;;;;6286971;28;20200;-76
2022/01/10 00:20:58;;;;;;;2.90;2.80;;;;;;;;;;6286922;28;20234;-76
2022/01/10 00:24:02;;;;;;;4.13;3.00;;;;;;;;;;6286942;28;20236;-76
2022/01/10 00:27:07;;;;;;;4.40;2.80;;;;;;;;;;6287637;28;20191;-76
2022/01/10 00:30:15;;;;;;;5.83;3.13;;;;;;;;;;6269182;28;20239;-76
2022/01/10 00:33:20;;;;;;;3.40;3.20;;;;;;;;;;6285760;28;20243;-76
2022/01/10 00:36:25;;;;;;;2.90;2.70;;;;;;;;;;6280535;28;20252;-76
2022/01/10 00:39:29;;;;;;;3.17;2.97;;;;;;;;;;6262142;28;20243;-76
2022/01/10 00:42:33;;;;;;;4.43;3.70;;;;;;;;;;6261408;28;20188;-76
2022/01/10 00:45:39;;;;;;;2.80;2.63;;;;;;;;;;6261798;28;20271;-76
2022/01/10 00:48:43;;;;;;;4.70;3.27;;;;;;;;;;6261835;28;20267;-76
2022/01/10 00:51:47;;;;;;;4.03;3.57;;;;;;;;;;6262292;28;20185;-76
2022/01/10 00:54:52;;;;;;;3.07;2.77;;;;;;;;;;6243733;28;20239;-76
2022/01/10 00:57:56;;;;;;;3.37;3.17;;;;;;;;;;6262518;28;20193;-76
2022/01/10 01:01:02;;;;;;;3.73;3.47;;;;;;;;;;6243898;28;20240;-76
2022/01/10 01:04:08;;;;;;;3.97;3.77;;;;;;;;;;6244426;28;20251;-76
2022/01/10 01:07:13;;;;;;;3.30;3.13;;;;;;;;;;6261192;28;20200;-76
2022/01/10 01:13:51;;;;;;;3.37;3.13;;;;;;;;;;6248304;28;20254;-76
2022/01/10 01:17:10;;;;;;;3.87;3.40;;;;;;;;;;6262238;28;20232;-76
2022/01/10 01:20:30;;;;;;;4.13;3.20;;;;;;;;;;6261075;28;20528;-76
2022/01/10 01:26:56;;;;;;;4.90;3.53;;;;;;;;;;6243083;28;20204;-76
2022/01/10 01:30:00;;;;;;;4.43;4.03;;;;;;;;;;6261015;28;20284;-76
2022/01/10 01:33:06;;;;;;;4.53;4.10;;;;;;;;;;6243577;28;20242;-76
2022/01/10 01:36:11;;;;;;;6.93;4.23;;;;;;;;;;6289509;28;20246;-76
2022/01/10 01:39:20;;;;;;;4.30;3.90;;;;;;;;;;6310329;28;20228;-76
2022/01/10 01:42:36;;;;;;;5.23;4.23;;;;;;;;;;6292260;28;20268;-76
2022/01/10 01:45:44;;;;;;;5.50;3.87;;;;;;;;;;6292633;28;20298;-76
2022/01/10 01:48:50;;;;;;;4.40;4.07;;;;;;;;;;6314223;28;20231;-76
2022/01/10 01:51:59;;;;;;;5.40;3.87;;;;;;;;;;6298321;28;20307;-76
2022/01/10 01:55:04;;;;;;;4.70;3.20;;;;;;;;;;6297259;28;20236;-76
2022/01/10 01:58:10;;;;;;;3.93;3.57;;;;;;;;;;6298138;28;20329;-76
2022/01/10 02:01:16;;;;;;;4.47;3.63;;;;;;;;;;6297193;28;20206;-76
2022/01/10 02:04:22;;;;;;;4.17;3.67;;;;;;;;;;6296340;28;20225;-76
2022/01/10 02:07:31;;;;;;;4.77;3.77;;;;;;;;;;6297634;28;20277;-76
2022/01/10 02:10:36;;;;;;;4.13;3.70;;;;;;;;;;6315033;28;20232;-76
2022/01/10 02:13:41;;;;;;;7.33;4.27;;;;;;;;;;6297109;28;20335;-76
2022/01/10 02:17:06;;;;;;;4.20;3.90;;;;;;;;;;6315479;28;20199;-76
2022/01/10 02:20:30;;;;;;;4.10;3.70;;;;;;;;;;6296261;28;20227;-76
2022/01/10 02:23:34;;;;;;;5.60;4.00;;;;;;;;;;6296321;28;20227;-76
2022/01/10 02:26:51;;;;;;;4.30;4.00;;;;;;;;;;6296693;28;20231;-76
2022/01/10 02:29:56;;;;;;;4.73;3.50;;;;;;;;;;6296056;28;20295;-76
2022/01/10 02:33:01;;;;;;;3.80;3.60;;;;;;;;;;6314568;28;20235;-76
2022/01/10 02:36:16;;;;;;;4.57;4.17;;;;;;;;;;6293937;28;20228;-76
2022/01/10 02:39:22;;;;;;;4.17;3.87;;;;;;;;;;6260934;28;20241;-76
2022/01/10 02:42:26;;;;;;;4.77;3.40;;;;;;;;;;6247428;28;20208;-76
2022/01/10 02:45:31;;;;;;;6.53;3.60;;;;;;;;;;6257203;28;20245;-76
2022/01/10 02:48:35;;;;;;;3.90;3.60;;;;;;;;;;6262853;28;20224;-76
2022/01/10 02:51:42;;;;;;;4.10;3.77;;;;;;;;;;6262843;28;20424;-76
2022/01/10 02:54:46;;;;;;;5.60;4.00;;;;;;;;;;6263127;28;20234;-76
2022/01/10 02:57:54;;;;;;;4.43;3.60;;;;;;;;;;6263451;28;20202;-76
2022/01/10 03:01:00;;;;;;;4.37;3.97;;;;;;;;;;6262759;28;20230;-76
2022/01/10 03:04:05;;;;;;;4.00;3.60;;;;;;;;;;6264071;28;20298;-76
2022/01/10 03:07:17;;;;;;;3.70;3.50;;;;;;;;;;6264721;28;20210;-76
2022/01/10 03:10:22;;;;;;;3.97;3.77;;;;;;;;;;6262674;28;20237;-76
2022/01/10 03:13:26;;;;;;;6.87;4.00;;;;;;;;;;6261988;28;20203;-77
2022/01/10 03:16:30;;;;;;;4.47;3.43;;;;;;;;;;6262040;28;20219;-76
2022/01/10 03:19:34;;;;;;;3.47;3.37;;;;;;;;;;6263662;28;20297;-76
2022/01/10 03:22:40;;;;;;;4.20;3.80;;;;;;;;;;6264371;28;20185;-76
2022/01/10 03:25:45;;;;;;;7.27;4.40;;;;;;;;;;6261688;28;20286;-76
2022/01/10 03:28:49;;;;;;;9.10;4.10;;;;;;;;;;6261471;28;20237;-76
2022/01/10 03:31:53;;;;;;;5.27;3.47;;;;;;;;;;6262446;28;20237;-76
2022/01/10 03:34:58;;;;;;;4.73;3.97;;;;;;;;;;6261903;28;20282;-76
2022/01/10 03:38:05;;;;;;;6.57;3.90;;;;;;;;;;6251606;28;20197;-76
2022/01/10 03:41:13;;;;;;;3.73;3.43;;;;;;;;;;6269996;28;20251;-76
2022/01/10 03:44:17;;;;;;;4.23;3.83;;;;;;;;;;6269507;28;20246;-76
2022/01/10 03:47:22;;;;;;;5.73;4.27;;;;;;;;;;6270344;28;20253;-76
2022/01/10 03:50:27;;;;;;;3.50;3.40;;;;;;;;;;6269765;28;20252;-76
2022/01/10 03:53:33;;;;;;;4.37;3.83;;;;;;;;;;6269312;28;20531;-76
2022/01/10 03:56:38;;;;;;;4.77;4.23;;;;;;;;;;6288342;28;20190;-76
2022/01/10 03:59:44;;;;;;;3.83;3.53;;;;;;;;;;6269333;28;20237;-76
2022/01/10 04:02:54;;;;;;;5.27;4.70;;;;;;;;;;6287491;28;20185;-76
2022/01/10 04:06:04;;;;;;;4.67;4.37;;;;;;;;;;6268564;28;20613;-76
2022/01/10 04:09:14;;;;;;;4.67;4.17;;;;;;;;;;6269443;28;20457;-76
2022/01/10 04:12:19;;;;;;;6.87;4.00;;;;;;;;;;6269333;28;20364;-76
2022/01/10 04:15:23;;;;;;;4.80;3.60;;;;;;;;;;6269318;28;20234;-76
2022/01/10 04:18:28;;;;;;;5.27;3.30;;;;;;;;;;6287326;28;20208;-76
2022/01/10 04:21:33;;;;;;;4.17;3.73;;;;;;;;;;6287873;28;20185;-76
2022/01/10 04:24:38;;;;;;;3.50;3.30;;;;;;;;;;6285903;28;20248;-76
2022/01/10 04:27:43;;;;;;;5.23;3.47;;;;;;;;;;6286330;28;20214;-76
2022/01/10 04:30:47;;;;;;;4.23;3.87;;;;;;;;;;6268955;28;20233;-76
2022/01/10 04:33:51;;;;;;;3.70;3.43;;;;;;;;;;6268194;28;20242;-76
2022/01/10 04:36:55;;;;;;;4.23;3.93;;;;;;;;;;6278142;28;20206;-76
2022/01/10 04:40:01;;;;;;;5.40;4.30;;;;;;;;;;6292641;28;20393;-76
2022/01/10 04:43:07;;;;;;;4.00;3.60;;;;;;;;;;6294076;28;20496;-76
2022/01/10 04:46:12;;;;;;;4.87;3.80;;;;;;;;;;6293045;28;20295;-76
2022/01/10 04:49:21;;;;;;;6.97;3.63;;;;;;;;;;6293351;28;20237;-76
2022/01/10 04:52:26;;;;;;;5.23;3.60;;;;;;;;;;6293068;28;20204;-76
2022/01/10 04:55:32;;;;;;;4.27;3.70;;;;;;;;;;6292520;28;20326;-76
2022/01/10 04:58:37;;;;;;;4.10;3.73;;;;;;;;;;6293218;28;20235;-76
2022/01/10 05:01:41;;;;;;;4.07;3.67;;;;;;;;;;6294097;28;20283;-76
2022/01/10 05:04:45;;;;;;;8.03;3.47;;;;;;;;;;6310916;28;20281;-76
2022/01/10 05:07:50;;;;;;;4.33;3.63;;;;;;;;;;6293887;28;20251;-76
2022/01/10 05:10:57;;;;;;;5.63;3.50;;;;;;;;;;6293082;28;20235;-76
2022/01/10 05:14:02;;;;;;;3.90;3.50;;;;;;;;;;6292749;28;20236;-76
2022/01/10 05:17:15;;;;;;;3.97;3.70;;;;;;;;;;6295121;28;20189;-76
2022/01/10 05:20:23;;;;;;;4.57;4.17;;;;;;;;;;6293146;28;20430;-76
2022/01/10 05:23:28;;;;;;;4.33;4.00;;;;;;;;;;6295614;28;20201;-76
2022/01/10 05:26:33;;;;;;;6.33;4.03;;;;;;;;;;6297530;28;20232;-76
2022/01/10 05:29:38;;;;;;;5.50;4.60;;;;;;;;;;6297838;28;20239;-76
2022/01/10 05:32:42;;;;;;;5.33;4.20;;;;;;;;;;6289415;28;20237;-76
2022/01/10 05:35:56;;;;;;;4.50;4.17;;;;;;;;;;6288030;28;20231;-76
2022/01/10 05:39:00;;;;;;;5.50;3.80;;;;;;;;;;6259317;28;20228;-76
2022/01/10 05:42:06;;;;;;;4.40;4.00;;;;;;;;;;6240968;28;20210;-76
2022/01/10 05:45:13;;;;;;;6.90;4.70;;;;;;;;;;6255719;28;20334;-76
2022/01/10 05:48:25;;;;;;;5.30;4.70;;;;;;;;;;6256880;28;20231;-76
2022/01/10 05:51:34;;;;;;;4.13;3.67;;;;;;;;;;6264953;28;20446;-76
2022/01/10 05:54:54;;;;;;;4.80;4.43;;;;;;;;;;6250181;28;20237;-76
2022/01/10 05:58:00;;;;;;;7.33;4.70;;;;;;;;;;6240485;28;20420;-76
2022/01/10 06:01:05;;;;;;;6.10;5.17;;;;;;;;;;6255579;28;20236;-76
2022/01/10 06:04:11;;;;;;;6.67;5.00;;;;;;;;;;6248809;28;20246;-76
2022/01/10 06:07:19;;;;;;;6.37;5.27;;;;;;;;;;6264182;28;20276;-76
2022/01/10 06:10:24;;;;;;;5.57;4.70;;;;;;;;;;6245025;28;20233;-76
2022/01/10 06:13:30;;;;;;;6.93;5.10;;;;;;;;;;6258618;28;20210;-76
2022/01/10 06:16:35;;;;;;;5.30;4.83;;;;;;;;;;6264408;28;20387;-76
2022/01/10 06:19:39;;;;;;;7.90;5.27;;;;;;;;;;6251274;28;20231;-76
2022/01/10 06:22:45;;;;;;;5.97;4.63;;;;;;;;;;6256605;28;20205;-77
2022/01/10 06:25:52;;;;;;;5.87;4.77;;;;;;;;;;6255084;28;20231;-76
2022/01/10 06:28:58;;;;;;;5.47;4.97;;;;;;;;;;6261919;28;20252;-76
2022/01/10 06:32:03;;;;;;;6.67;4.87;;;;;;;;;;6268440;28;20275;-76
2022/01/10 06:35:09;;;;;;;6.93;4.87;;;;;;;;;;6254290;28;20232;-76
2022/01/10 06:38:16;;;;;;;5.53;5.00;;;;;;;;;;6267362;28;20193;-76
2022/01/10 06:41:21;;;;;;;6.67;4.83;;;;;;;;;;6272043;28;20207;-76
2022/01/10 06:44:27;;;;;;;10.63;6.13;;;;;;;;;;6270942;28;20307;-76
2022/01/10 06:47:31;;;;;;;7.73;5.13;;;;;;;;;;6271491;28;20220;-76
2022/01/10 06:50:35;;;;;;;6.63;5.37;;;;;;;;;;6270976;28;20229;-75
2022/01/10 06:53:40;;;;;;;10.33;5.57;;;;;;;;;;6271413;28;20256;-76
2022/01/10 06:56:44;;;;;;;7.80;5.70;;;;;;;;;;6271188;28;20246;-76
2022/01/10 06:59:51;;;;;;;5.87;5.20;;;;;;;;;;6284369;28;20235;-75
2022/01/10 07:02:57;;;;;;;8.90;5.93;;;;;;;;;;6296484;28;20214;-75
2022/01/10 07:06:02;;;;;;;7.10;5.70;;;;;;;;;;6295652;28;20237;-75
2022/01/10 07:09:08;;;;;;;8.57;5.83;;;;;;;;;;6295148;28;20233;-75
2022/01/10 07:12:18;;;;;;;6.97;5.67;;;;;;;;;;6296441;28;20249;-75
2022/01/10 07:15:32;;;;;;;7.53;5.70;;;;;;;;;;6295247;28;20297;-75
2022/01/10 07:18:40;;;;;;;13.57;5.67;;;;;;;;;;6294898;28;20233;-76
2022/01/10 07:21:59;;;;;;;8.37;6.50;;;;;;;;;;6294367;28;20371;-75
2022/01/10 07:25:05;;;;;;;6.47;5.43;;;;;;;;;;6294788;28;20231;-76
2022/01/10 07:28:11;;;;;;;7.27;5.20;;;;;;;;;;6311923;28;20219;-76
2022/01/10 07:31:16;;;;;;;8.53;5.80;;;;;;;;;;6313329;28;20199;-75
2022/01/10 07:34:20;;;;;;;7.33;5.57;;;;;;;;;;6312923;28;20281;-75
2022/01/10 07:37:25;;;;;;;6.83;5.70;;;;;;;;;;6299783;28;20205;-75
2022/01/10 07:40:29;;;;;;;10.43;5.40;;;;;;;;;;6268078;28;20249;-75
2022/01/10 07:43:34;;;;;;;9.90;5.67;;;;;;;;;;6263212;28;20270;-75
2022/01/10 07:46:41;;;;;;;9.87;5.57;;;;;;;;;;6261774;28;20204;-76
2022/01/10 07:49:45;;;;;;;10.57;6.07;;;;;;;;;;6262237;28;20429;-75
2022/01/10 07:52:50;;;;;;;8.27;5.90;;;;;;;;;;6263834;28;20231;-76
2022/01/10 07:55:54;;;;;;;8.13;5.37;;;;;;;;;;6260820;28;20233;-76
2022/01/10 07:58:59;;;;;;;8.97;5.90;;;;;;;;;;6261742;28;20298;-75
2022/01/10 08:02:05;;;;;;;7.47;5.47;;;;;;;;;;6262173;28;20188;-75
2022/01/10 08:05:12;;;;;;;7.50;5.17;;;;;;;;;;6261780;28;20430;-75
2022/01/10 08:08:17;;;;;;;9.30;5.60;;;;;;;;;;6262193;28;20213;-76
2022/01/10 08:11:26;;;;;;;9.93;6.17;;;;;;;;;;6261946;28;20188;-75
2022/01/10 08:14:31;;;;;;;13.40;6.23;;;;;;;;;;6262553;28;20229;-75
2022/01/10 08:17:37;;;;;;;6.47;5.53;;;;;;;;;;6261947;28;20192;-75
2022/01/10 08:20:41;;;;;;;7.00;4.80;;;;;;;;;;6261619;28;20572;-75
2022/01/10 08:23:48;;;;;;;8.53;5.33;;;;;;;;;;6262367;28;20239;-75
2022/01/10 08:26:53;;;;;;;6.60;5.10;;;;;;;;;;6262346;28;20192;-76
2022/01/10 08:29:58;;;;;;;5.73;4.93;;;;;;;;;;6261848;28;20242;-75
2022/01/10 08:33:03;;;;;;;8.37;4.50;;;;;;;;;;6262369;28;20289;-75
2022/01/10 08:36:09;;;;;;;7.17;5.37;;;;;;;;;;6261487;28;20229;-76
2022/01/10 08:39:13;;;;;;;4.73;4.33;;;;;;;;;;6261818;28;20299;-75
2022/01/10 08:42:18;;;;;;;6.90;5.20;;;;;;;;;;6261302;28;20377;-75
2022/01/10 08:45:23;;;;;;;10.73;5.67;;;;;;;;;;6261477;28;20257;-75
2022/01/10 08:48:29;;;;;;;6.63;5.57;;;;;;;;;;6261674;28;20241;-75
2022/01/10 08:51:34;;;;;;;7.03;5.23;;;;;;;;;;6261589;28;20208;-75
2022/01/10 08:54:38;;;;;;;7.17;5.10;;;;;;;;;;6261496;28;20292;-75
2022/01/10 08:57:43;;;;;;;5.77;4.70;;;;;;;;;;6261873;28;20185;-76
2022/01/10 09:00:47;;;;;;;7.13;5.40;;;;;;;;;;6260682;28;20286;-75
2022/01/10 09:03:53;;;;;;;5.40;4.90;;;;;;;;;;6260672;28;20413;-76
2022/01/10 09:06:58;;;;;;;4.90;4.50;;;;;;;;;;6261443;28;20187;-75
2022/01/10 09:10:02;;;;;;;5.10;4.33;;;;;;;;;;6260512;28;20301;-75
2022/01/10 09:13:07;;;;;;;5.03;4.40;;;;;;;;;;6260981;28;20468;-75
2022/01/10 09:16:14;;;;;;;5.50;4.67;;;;;;;;;;6286133;28;20283;-75
2022/01/10 09:19:20;;;;;;;5.90;4.97;;;;;;;;;;6285819;28;20237;-76
2022/01/10 09:22:24;;;;;;;5.03;4.27;;;;;;;;;;6286703;28;20185;-76
2022/01/10 09:25:28;;;;;;;6.50;5.03;;;;;;;;;;6285298;28;20227;-76
2022/01/10 09:28:32;;;;;;;6.00;5.00;;;;;;;;;;6284638;28;20436;-76
2022/01/10 09:31:37;;;;;;;4.77;4.13;;;;;;;;;;6286139;28;20208;-76
2022/01/10 09:34:42;;;;;;;4.60;4.27;;;;;;;;;;6285102;28;20311;-76
2022/01/10 09:37:46;;;;;;;6.47;4.63;;;;;;;;;;6302008;28;20200;-76
2022/01/10 09:40:50;;;;;;;4.43;4.03;;;;;;;;;;6310737;28;20234;-76
2022/01/10 09:43:57;;;;;;;4.23;3.93;;;;;;;;;;6310474;28;20228;-75
2022/01/10 09:47:01;;;;;;;4.20;3.80;;;;;;;;;;6311057;28;20252;-75
2022/01/10 09:50:09;;;;;;;8.87;4.33;;;;;;;;;;6309565;28;20246;-75
2022/01/10 09:53:18;;;;;;;5.30;4.77;;;;;;;;;;6309497;28;20562;-76
2022/01/10 09:56:23;;;;;;;5.40;4.43;;;;;;;;;;6311209;28;20184;-75
2022/01/10 09:59:28;;;;;;;4.97;4.57;;;;;;;;;;6310639;28;20371;-75
2022/01/10 10:02:35;;;;;;;5.87;5.20;;;;;;;;;;6310983;28;20189;-75
2022/01/10 10:05:43;;;;;;;4.07;3.73;;;;;;;;;;6309854;28;20271;-76
2022/01/10 10:08:47;;;;;;;4.60;4.30;;;;;;;;;;6310012;28;20246;-76
2022/01/10 10:11:52;;;;;;;5.93;4.37;;;;;;;;;;6314048;28;20252;-76
2022/01/10 10:14:57;;;;;;;4.80;4.40;;;;;;;;;;6313822;28;20539;-76
2022/01/10 10:18:03;;;;;;;4.90;4.43;;;;;;;;;;6315249;28;20185;-76
2022/01/10 10:21:12;;;;;;;4.50;4.10;;;;;;;;;;6314047;28;20231;-76
2022/01/10 10:24:16;;;;;;;3.93;3.50;;;;;;;;;;6314123;28;20232;-76
2022/01/10 10:27:22;;;;;;;4.57;4.17;;;;;;;;;;6314683;28;20185;-76
2022/01/10 10:30:46;;;;;;;4.87;4.23;;;;;;;;;;6313491;28;20597;-76
2022/01/10 10:33:51;;;;;;;5.37;4.47;;;;;;;;;;6313427;28;20232;-75
2022/01/10 10:37:05;;;;;;;5.13;4.33;;;;;;;;;;6304447;28;20251;-75
2022/01/10 10:40:14;;;;;;;4.70;4.27;;;;;;;;;;6271884;28;20566;-75
2022/01/10 10:43:21;;;;;;;4.43;4.07;;;;;;;;;;6263532;28;20309;-75
2022/01/10 10:46:27;;;;;;;4.50;4.17;;;;;;;;;;6263805;28;20253;-75
2022/01/10 10:49:35;;;;;;;5.17;4.13;;;;;;;;;;6263416;28;20539;-75
2022/01/10 10:52:42;;;;;;;7.50;4.50;;;;;;;;;;6264932;28;20188;-75
2022/01/10 10:55:47;;;;;;;6.90;4.53;;;;;;;;;;6263589;28;20242;-75
2022/01/10 10:58:52;;;;;;;4.60;4.20;;;;;;;;;;6263248;28;20565;-75
2022/01/10 11:01:56;;;;;;;4.87;4.43;;;;;;;;;;6263999;28;20216;-75
2022/01/10 11:05:07;;;;;;;6.77;4.77;;;;;;;;;;6263950;28;20292;-75
2022/01/10 11:08:16;;;;;;;4.97;4.60;;;;;;;;;;6261725;28;20379;-75
2022/01/10 11:11:21;;;;;;;4.53;4.13;;;;;;;;;;6263083;28;20459;-75
2022/01/10 11:14:25;;;;;;;5.13;3.70;;;;;;;;;;6263133;28;20233;-75
2022/01/10 11:17:30;;;;;;;4.93;4.43;;;;;;;;;;6263904;28;20220;-77
2022/01/10 11:20:41;;;;;;;4.60;4.30;;;;;;;;;;6262633;28;20368;-76
2022/01/10 11:24:08;;;;;;;4.53;4.10;;;;;;;;;;6262741;28;20368;-76
2022/01/10 11:27:30;;;;;;;5.77;3.90;;;;;;;;;;6262873;28;20491;-76
2022/01/10 11:30:36;;;;;;;4.20;3.80;;;;;;;;;;6261677;28;20268;-76
2022/01/10 11:33:42;;;;;;;4.40;4.10;;;;;;;;;;6262132;28;20562;-76
2022/01/10 11:36:47;;;;;;;4.43;4.13;;;;;;;;;;6262534;28;20209;-76
2022/01/10 11:39:53;;;;;;;4.03;3.73;;;;;;;;;;6262995;28;20234;-76
2022/01/10 11:42:58;;;;;;;4.47;4.07;;;;;;;;;;6263899;28;20195;-76
2022/01/10 11:46:12;;;;;;;4.77;4.37;;;;;;;;;;6262208;28;20240;-76
2022/01/10 11:49:18;;;;;;;3.73;3.37;;;;;;;;;;6262861;28;20232;-75
2022/01/10 11:52:23;;;;;;;4.73;3.90;;;;;;;;;;6263748;28;20254;-77
2022/01/10 11:55:32;;;;;;;4.50;4.20;;;;;;;;;;6262485;28;20304;-76
2022/01/10 11:58:37;;;;;;;5.83;3.97;;;;;;;;;;6262609;28;20233;-75
2022/01/10 12:01:42;;;;;;;6.53;4.33;;;;;;;;;;6263274;28;20267;-75
2022/01/10 12:04:48;;;;;;;4.10;3.80;;;;;;;;;;6262079;28;20235;-76
2022/01/10 12:07:52;;;;;;;4.50;4.10;;;;;;;;;;6262894;28;20226;-75
2022/01/10 12:11:04;;;;;;;4.27;3.77;;;;;;;;;;6261507;28;20536;-75
2022/01/10 12:14:09;;;;;;;4.17;3.77;;;;;;;;;;6261596;28;20230;-76
2022/01/10 12:17:14;;;;;;;4.63;3.77;;;;;;;;;;6263039;28;20195;-75
2022/01/10 12:20:18;;;;;;;4.93;4.40;;;;;;;;;;6262938;28;20253;-76
2022/01/10 12:23:23;;;;;;;4.73;4.03;;;;;;;;;;6265362;28;20267;-77
2022/01/10 12:26:29;;;;;;;4.60;4.30;;;;;;;;;;6265595;28;20207;-77
2022/01/10 12:29:34;;;;;;;5.93;4.10;;;;;;;;;;6266042;28;20283;-77
2022/01/10 12:32:38;;;;;;;4.53;4.23;;;;;;;;;;6265214;28;20315;-77
2022/01/10 12:35:43;;;;;;;4.20;3.90;;;;;;;;;;6245569;28;20237;-77
2022/01/10 12:38:49;;;;;;;5.40;4.57;;;;;;;;;;6264281;28;20224;-77
2022/01/10 12:41:57;;;;;;;5.90;4.23;;;;;;;;;;6267215;28;20201;-77
2022/01/10 12:45:01;;;;;;;4.70;4.30;;;;;;;;;;6264713;28;20343;-77
2022/01/10 12:48:06;;;;;;;4.53;4.13;;;;;;;;;;6262694;28;20495;-78
2022/01/10 12:51:10;;;;;;;4.90;4.40;;;;;;;;;;6264335;28;20236;-77
2022/01/10 12:54:34;;;;;;;5.13;4.40;;;;;;;;;;6263747;28;20228;-77
2022/01/10 12:57:40;;;;;;;5.03;4.63;;;;;;;;;;6263296;28;20185;-76
2022/01/10 13:00:45;;;;;;;5.80;4.27;;;;;;;;;;6261613;28;20232;-76
2022/01/10 13:03:53;;;;;;;5.60;4.90;;;;;;;;;;6261796;28;20233;-76
2022/01/10 13:06:59;;;;;;;5.43;4.43;;;;;;;;;;6262440;28;20191;-77
2022/01/10 13:10:31;;;;;;;5.90;4.13;;;;;;;;;;6262321;28;20601;-77
2022/01/10 13:13:39;;;;;;;6.70;4.87;;;;;;;;;;6265758;28;20331;-77
2022/01/10 13:16:45;;;;;;;5.27;4.77;;;;;;;;;;6249163;28;20269;-77
2022/01/10 13:20:00;;;;;;;6.80;4.73;;;;;;;;;;6264298;28;20247;-77
2022/01/10 13:23:06;;;;;;;5.80;4.33;;;;;;;;;;6263138;28;20212;-77
2022/01/10 13:26:15;;;;;;;4.80;4.40;;;;;;;;;;6265178;28;20213;-77
2022/01/10 13:29:46;;;;;;;4.77;4.33;;;;;;;;;;6278539;28;20249;-77
2022/01/10 13:32:54;;;;;;;5.00;4.60;;;;;;;;;;6273971;28;20281;-76
2022/01/10 13:36:02;;;;;;;4.80;4.37;;;;;;;;;;6270842;28;20240;-77
2022/01/10 13:43:03;;;;;;;9.07;4.87;;;;;;;;;;6266331;28;20452;-77
2022/01/10 13:46:20;;;;;;;7.30;5.20;;;;;;;;;;6269772;28;20315;-77
2022/01/10 13:49:26;;;;;;;5.47;4.53;;;;;;;;;;6267582;28;20229;-76
2022/01/10 13:52:31;;;;;;;4.87;4.33;;;;;;;;;;6268710;28;20272;-78
2022/01/10 13:55:37;;;;;;;6.03;5.47;;;;;;;;;;6267849;28;20298;-77
2022/01/10 13:58:43;;;;;;;5.40;4.90;;;;;;;;;;6266482;28;20275;-77
2022/01/10 14:01:56;;;;;;;5.60;4.90;;;;;;;;;;6265824;28;20192;-77
2022/01/10 14:05:19;;;;;;;5.60;4.43;;;;;;;;;;6266466;28;20552;-77
2022/01/10 14:08:25;;;;;;;5.60;4.50;;;;;;;;;;6269207;28;20234;-77
2022/01/10 14:11:31;;;;;;;9.10;5.03;;;;;;;;;;6269238;28;20214;-77
2022/01/10 14:14:35;;;;;;;5.53;4.73;;;;;;;;;;6268297;28;20287;-77
2022/01/10 14:17:41;;;;;;;5.20;4.70;;;;;;;;;;6248565;28;20281;-77
2022/01/10 14:20:45;;;;;;;4.93;4.17;;;;;;;;;;6267701;28;20252;-77
2022/01/10 14:23:49;;;;;;;4.60;4.20;;;;;;;;;;6265739;28;20236;-77
2022/01/10 14:26:53;;;;;;;4.87;4.57;;;;;;;;;;6265112;28;20291;-77
2022/01/10 14:29:58;;;;;;;5.13;4.33;;;;;;;;;;6266602;28;20229;-76
2022/01/10 14:33:03;;;;;;;5.27;4.77;;;;;;;;;;6265360;28;20320;-76
2022/01/10 14:36:09;;;;;;;5.73;4.60;;;;;;;;;;6265309;28;20231;-77
2022/01/10 14:39:15;;;;;;;4.73;4.43;;;;;;;;;;6265517;28;20233;-77
2022/01/10 14:42:19;;;;;;;7.10;5.13;;;;;;;;;;6266631;28;20256;-77
2022/01/10 14:45:23;;;;;;;4.80;4.40;;;;;;;;;;6264766;28;20242;-76
2022/01/10 14:48:29;;;;;;;6.87;4.80;;;;;;;;;;6265258;28;20184;-77
2022/01/10 14:51:36;;;;;;;5.20;4.70;;;;;;;;;;6270013;28;20222;-76
2022/01/10 14:54:40;;;;;;;4.80;4.40;;;;;;;;;;6265444;28;20240;-77
2022/01/10 14:57:44;;;;;;;6.47;4.83;;;;;;;;;;6266559;28;20248;-77
2022/01/10 15:00:48;;;;;;;5.70;4.97;;;;;;;;;;6263878;28;20233;-76
2022/01/10 15:03:54;;;;;;;8.37;5.23;;;;;;;;;;6264117;28;20291;-76
2022/01/10 15:06:59;;;;;;;6.40;5.30;;;;;;;;;;6263417;28;20538;-76
2022/01/10 15:10:04;;;;;;;8.10;5.10;;;;;;;;;;6263248;28;20235;-76
2022/01/10 15:13:10;;;;;;;6.40;5.43;;;;;;;;;;6264341;28;20233;-76
2022/01/10 15:16:16;;;;;;;7.47;5.00;;;;;;;;;;6264213;28;20247;-76
2022/01/10 15:19:21;;;;;;;9.57;5.50;;;;;;;;;;6262618;28;20232;-76
2022/01/10 15:22:25;;;;;;;5.27;4.87;;;;;;;;;;6264239;28;20196;-77
2022/01/10 15:25:30;;;;;;;5.27;4.80;;;;;;;;;;6263458;28;20536;-77
2022/01/10 15:28:35;;;;;;;6.10;5.10;;;;;;;;;;6262836;28;20471;-76
2022/01/10 15:31:40;;;;;;;7.43;5.10;;;;;;;;;;6263269;28;20205;-77
2022/01/10 15:34:45;;;;;;;4.90;4.50;;;;;;;;;;6262424;28;20468;-76
2022/01/10 15:37:51;;;;;;;5.77;5.10;;;;;;;;;;6280031;28;20199;-77
2022/01/10 15:40:55;;;;;;;5.10;4.63;;;;;;;;;;6287945;28;20232;-77
2022/01/10 15:43:59;;;;;;;4.43;4.03;;;;;;;;;;6287879;28;20310;-77
2022/01/10 15:47:04;;;;;;;4.93;3.90;;;;;;;;;;6288395;28;20185;-76
2022/01/10 15:50:13;;;;;;;4.20;3.80;;;;;;;;;;6287667;28;20227;-77
2022/01/10 15:53:20;;;;;;;4.20;3.90;;;;;;;;;;6287606;28;20262;-77
2022/01/10 15:56:23;;;;;;;4.63;4.27;;;;;;;;;;6288465;28;20217;-77
2022/01/10 15:59:27;;;;;;;4.67;4.23;;;;;;;;;;6287370;28;20302;-76
2022/01/10 16:02:31;;;;;;;5.87;4.70;;;;;;;;;;6286999;28;20562;-77
2022/01/10 16:05:41;;;;;;;6.30;4.93;;;;;;;;;;6286937;28;20236;-76
2022/01/10 16:08:45;;;;;;;5.33;4.47;;;;;;;;;;6287340;28;20225;-77
2022/01/10 16:11:58;;;;;;;6.10;4.90;;;;;;;;;;6286149;28;20523;-77
2022/01/10 16:15:02;;;;;;;6.27;5.10;;;;;;;;;;6286554;28;20502;-76
2022/01/10 16:18:07;;;;;;;7.20;4.97;;;;;;;;;;6287484;28;20233;-77
2022/01/10 16:21:13;;;;;;;4.70;4.30;;;;;;;;;;6287039;28;20208;-77
2022/01/10 16:24:18;;;;;;;5.33;4.83;;;;;;;;;;6282621;28;20236;-77
2022/01/10 16:27:22;;;;;;;5.07;4.57;;;;;;;;;;6286516;28;20185;-76
2022/01/10 16:30:28;;;;;;;4.97;4.47;;;;;;;;;;6285991;28;20543;-76
2022/01/10 16:33:32;;;;;;;5.00;4.50;;;;;;;;;;6286524;28;20229;-76
2022/01/10 16:36:38;;;;;;;5.30;4.80;;;;;;;;;;6284828;28;20451;-76
2022/01/10 16:39:43;;;;;;;5.63;4.93;;;;;;;;;;6280310;28;20538;-76
2022/01/10 16:42:47;;;;;;;7.97;5.87;;;;;;;;;;6263113;28;20221;-76
2022/01/10 16:45:53;;;;;;;5.60;4.90;;;;;;;;;;6261739;28;20234;-76
2022/01/10 16:48:57;;;;;;;10.63;5.67;;;;;;;;;;6261114;28;20256;-76
2022/01/10 16:52:02;;;;;;;4.67;4.43;;;;;;;;;;6292739;28;20272;-76
2022/01/10 16:55:08;;;;;;;5.27;4.77;;;;;;;;;;6292405;28;20239;-76
2022/01/10 16:58:13;;;;;;;4.90;4.60;;;;;;;;;;6285733;28;20229;-76
2022/01/10 17:01:18;;;;;;;5.07;4.63;;;;;;;;;;6285506;28;20232;-76
2022/01/10 17:04:22;;;;;;;5.27;4.80;;;;;;;;;;6286826;28;20203;-76
2022/01/10 17:07:28;;;;;;;6.80;5.17;;;;;;;;;;6297329;28;20303;-76
2022/01/10 17:10:31;;;;;;;5.23;4.77;;;;;;;;;;6311462;28;20285;-76
2022/01/10 17:13:36;;;;;;;5.30;4.87;;;;;;;;;;6310755;28;20534;-76
2022/01/10 17:16:40;;;;;;;4.43;4.17;;;;;;;;;;6310756;28;20236;-76
2022/01/10 17:19:45;;;;;;;7.67;4.77;;;;;;;;;;6314439;28;20497;-76
2022/01/10 17:22:50;;;;;;;5.97;5.37;;;;;;;;;;6315421;28;20426;-76
2022/01/10 17:25:54;;;;;;;5.63;5.10;;;;;;;;;;6292219;28;20231;-76
2022/01/10 17:28:58;;;;;;;5.37;4.87;;;;;;;;;;6291553;28;20184;-76
2022/01/10 17:32:03;;;;;;;5.30;4.60;;;;;;;;;;6290329;28;20260;-76
2022/01/10 17:35:10;;;;;;;4.80;4.30;;;;;;;;;;6290451;28;20561;-76
2022/01/10 17:38:19;;;;;;;8.20;5.13;;;;;;;;;;6290791;28;20278;-75
2022/01/10 17:41:24;;;;;;;5.00;4.53;;;;;;;;;;6290723;28;20248;-77
2022/01/10 17:44:28;;;;;;;5.03;4.63;;;;;;;;;;6291520;28;20224;-77
2022/01/10 17:47:32;;;;;;;6.97;5.57;;;;;;;;;;6290295;28;20239;-77
2022/01/10 17:50:45;;;;;;;5.53;4.83;;;;;;;;;;6290300;28;20258;-77
2022/01/10 17:53:50;;;;;;;5.47;4.97;;;;;;;;;;6290589;28;20276;-77
2022/01/10 17:56:58;;;;;;;5.37;4.83;;;;;;;;;;6290999;28;20297;-76
2022/01/10 18:00:04;;;;;;;6.13;4.80;;;;;;;;;;6314232;28;20262;-77
2022/01/10 18:03:22;;;;;;;4.53;4.20;;;;;;;;;;6314573;28;20234;-76
2022/01/10 18:06:28;;;;;;;6.37;4.63;;;;;;;;;;6315051;28;20238;-76
2022/01/10 18:09:34;;;;;;;4.60;4.30;;;;;;;;;;6315384;28;20381;-76
2022/01/10 18:12:40;;;;;;;5.23;4.73;;;;;;;;;;6314034;28;20603;-76
2022/01/10 18:15:44;;;;;;;5.40;4.90;;;;;;;;;;6314784;28;20210;-76
2022/01/10 18:18:48;;;;;;;5.07;4.40;;;;;;;;;;6315034;28;20209;-76
2022/01/10 18:21:52;;;;;;;5.10;4.43;;;;;;;;;;6313926;28;20254;-76
2022/01/10 18:24:58;;;;;;;6.33;5.30;;;;;;;;;;6314237;28;20353;-76
2022/01/10 18:28:02;;;;;;;5.20;4.33;;;;;;;;;;6314269;28;20402;-76
2022/01/10 18:31:06;;;;;;;8.00;4.77;;;;;;;;;;6312692;28;20287;-76
2022/01/10 18:34:12;;;;;;;6.80;5.10;;;;;;;;;;6314040;28;20244;-76
2022/01/10 18:37:16;;;;;;;5.83;5.20;;;;;;;;;;6313563;28;20321;-76
2022/01/10 18:40:22;;;;;;;4.57;4.17;;;;;;;;;;6315325;28;20223;-76
2022/01/10 18:43:26;;;;;;;5.13;4.70;;;;;;;;;;6313694;28;20226;-76
2022/01/10 18:46:31;;;;;;;8.30;4.60;;;;;;;;;;6314139;28;20236;-76
2022/01/10 18:49:35;;;;;;;7.23;4.97;;;;;;;;;;6313582;28;20387;-76